createdAt,value
2023-05-01T00:02:14.586Z,100502.31
2023-05-01T00:04:41.863Z,100500.22
2023-05-01T00:07:09.304Z,100501.34
2023-05-01T00:09:36.678Z,100504.09
2023-05-01T00:12:04.144Z,100503.63
2023-05-01T00:14:31.473Z,100505.06
2023-05-01T00:16:58.836Z,100493.06
2023-05-01T00:19:26.186Z,100503.97
2023-05-01T00:21:53.544Z,100493.53
2023-05-01T00:24:20.883Z,100500.84
2023-05-01T00:26:48.149Z,100504.31
2023-05-01T00:29:15.791Z,100500.06
2023-05-01T00:31:43.504Z,100508.59
2023-05-01T00:34:11.610Z,100507.31
2023-05-01T00:36:38.896Z,100509.06
2023-05-01T00:39:07.975Z,100513.50
2023-05-01T00:41:35.746Z,100493.25
2023-05-01T00:44:03.350Z,100510.97
2023-05-01T00:46:30.766Z,100506.38
2023-05-01T00:48:58.294Z,100514.94
2023-05-01T00:51:27.376Z,100514.28
2023-05-01T00:53:54.700Z,100512.41
2023-05-01T00:56:22.133Z,100524.91
2023-05-01T00:58:51.633Z,100520.94
2023-05-01T01:01:20.978Z,100523.00
2023-05-01T01:03:48.605Z,100515.72
2023-05-01T01:06:35.851Z,100519.81
2023-05-01T01:09:08.988Z,100520.47
2023-05-01T01:12:06.762Z,100523.16
2023-05-01T01:14:40.217Z,100509.72
2023-05-01T01:17:19.697Z,100522.53
2023-05-01T01:20:01.730Z,100520.66
2023-05-01T01:22:29.188Z,100512.72
2023-05-01T01:25:30.212Z,100523.50
2023-05-01T01:28:21.846Z,100507.16
2023-05-01T01:31:14.540Z,100520.16
2023-05-01T01:34:15.017Z,100520.78
2023-05-01T01:37:00.621Z,100504.63
2023-05-01T01:39:37.016Z,100516.34
2023-05-01T01:42:08.568Z,100514.47
2023-05-01T01:44:43.706Z,100524.75
2023-05-01T01:47:12.272Z,100523.16
2023-05-01T01:49:42.615Z,100529.34
2023-05-01T01:52:10.972Z,100526.66
2023-05-01T01:54:40.534Z,100531.88
2023-05-01T01:57:08.412Z,100530.31
2023-05-01T01:59:35.789Z,100532.03
2023-05-01T02:02:04.281Z,100522.19
2023-05-01T02:04:31.686Z,100499.69
2023-05-01T02:06:59.826Z,100512.66
2023-05-01T02:09:28.300Z,100525.34
2023-05-01T02:11:58.691Z,100523.44
2023-05-01T02:14:26.947Z,100526.00
2023-05-01T02:16:54.208Z,100509.97
2023-05-01T02:19:21.886Z,100523.00
2023-05-01T02:21:49.936Z,100523.00
2023-05-01T02:24:17.279Z,100526.63
2023-05-01T02:26:47.953Z,100526.31
2023-05-01T02:29:15.210Z,100509.84
2023-05-01T02:31:42.495Z,100527.28
2023-05-01T02:34:09.995Z,100520.78
2023-05-01T02:36:37.399Z,100532.03
2023-05-01T02:39:05.589Z,100529.97
2023-05-01T02:41:32.926Z,100521.13
2023-05-01T02:44:04.247Z,100534.09
2023-05-01T02:46:33.392Z,100518.41
2023-05-01T02:49:01.800Z,100525.38
2023-05-01T02:51:29.662Z,100525.06
2023-05-01T02:53:56.961Z,100514.13
2023-05-01T02:56:26.848Z,100517.78
2023-05-01T02:58:54.573Z,100525.22
2023-05-01T03:01:21.924Z,100524.28
2023-05-01T03:03:49.394Z,100526.31
2023-05-01T03:06:16.681Z,100533.13
2023-05-01T03:08:44.423Z,100526.16
2023-05-01T03:11:11.700Z,100531.09
2023-05-01T03:13:38.976Z,100520.47
2023-05-01T03:16:06.441Z,100516.97
2023-05-01T03:18:34.877Z,100530.28
2023-05-01T03:21:02.250Z,100515.06
2023-05-01T03:23:29.500Z,100525.53
2023-05-01T03:25:57.789Z,100529.34
2023-05-01T03:28:25.354Z,100527.75
2023-05-01T03:30:53.472Z,100518.25
2023-05-01T03:33:21.043Z,100531.72
2023-05-01T03:35:48.348Z,100539.16
2023-05-01T03:38:16.479Z,100540.59
2023-05-01T03:41:01.899Z,100528.25
2023-05-01T03:43:47.921Z,100534.09
2023-05-01T03:46:35.505Z,100528.88
2023-05-01T03:49:03.737Z,100536.00
2023-05-01T03:51:34.794Z,100515.72
2023-05-01T03:54:02.787Z,100538.22
2023-05-01T03:56:37.002Z,100512.84
2023-05-01T03:59:05.948Z,100537.09
2023-05-01T04:01:36.021Z,100526.97
2023-05-01T04:04:03.664Z,100525.84
2023-05-01T04:06:31.464Z,100538.19
2023-05-01T04:08:58.766Z,100536.47
2023-05-01T04:11:27.228Z,100518.72
2023-05-01T04:13:54.565Z,100528.88
2023-05-01T04:16:22.143Z,100526.34
2023-05-01T04:18:49.496Z,100534.09
2023-05-01T04:21:18.804Z,100521.41
2023-05-01T04:23:49.938Z,100533.13
2023-05-01T04:26:17.942Z,100539.16
2023-05-01T04:28:45.284Z,100537.88
2023-05-01T04:31:14.517Z,100546.75
2023-05-01T04:33:41.768Z,100550.53
2023-05-01T04:36:09.350Z,100543.88
2023-05-01T04:38:37.434Z,100550.34
2023-05-01T04:41:06.028Z,100549.84
2023-05-01T04:43:33.760Z,100548.25
2023-05-01T04:46:03.860Z,100542.81
2023-05-01T04:48:31.265Z,100557.53
2023-05-01T04:50:58.549Z,100556.88
2023-05-01T04:53:28.822Z,100553.06
2023-05-01T04:55:56.222Z,100549.88
2023-05-01T04:58:23.576Z,100552.03
2023-05-01T05:00:53.814Z,100524.34
2023-05-01T05:03:23.375Z,100549.56
2023-05-01T05:05:50.749Z,100558.84
2023-05-01T05:08:18.132Z,100558.84
2023-05-01T05:10:58.403Z,100556.75
2023-05-01T05:13:29.910Z,100554.78
2023-05-01T05:16:02.549Z,100560.38
2023-05-01T05:18:29.828Z,100560.47
2023-05-01T05:20:57.726Z,100566.13
2023-05-01T05:23:25.824Z,100566.84
2023-05-01T05:25:53.088Z,100564.59
2023-05-01T05:28:20.351Z,100563.28
2023-05-01T05:30:48.159Z,100575.63
2023-05-01T05:33:18.066Z,100544.03
2023-05-01T05:35:45.743Z,100561.13
2023-05-01T05:38:13.788Z,100565.41
2023-05-01T05:40:42.217Z,100576.28
2023-05-01T05:43:10.740Z,100560.00
2023-05-01T05:45:38.232Z,100574.53
2023-05-01T05:48:06.090Z,100576.75
2023-05-01T05:50:36.534Z,100576.56
2023-05-01T05:53:03.911Z,100573.13
2023-05-01T05:55:31.609Z,100581.84
2023-05-01T05:58:03.493Z,100563.16
2023-05-01T06:00:31.402Z,100576.84
2023-05-01T06:03:02.735Z,100589.72
2023-05-01T06:05:31.765Z,100585.03
2023-05-01T06:07:59.081Z,100576.88
2023-05-01T06:10:26.321Z,100573.19
2023-05-01T06:12:58.129Z,100589.75
2023-05-01T06:15:29.859Z,100573.31
2023-05-01T06:17:57.337Z,100577.75
2023-05-01T06:20:24.679Z,100572.91
2023-05-01T06:22:51.971Z,100570.00
2023-05-01T06:25:26.292Z,100570.31
2023-05-01T06:27:53.541Z,100561.06
2023-05-01T06:30:22.444Z,100576.75
2023-05-01T06:32:50.271Z,100573.38
2023-05-01T06:35:17.950Z,100573.13
2023-05-01T06:37:45.341Z,100567.50
2023-05-01T06:40:13.194Z,100574.91
2023-05-01T06:42:40.657Z,100572.41
2023-05-01T06:45:08.363Z,100580.44
2023-05-01T06:47:35.801Z,100572.28
2023-05-01T06:50:05.686Z,100575.19
2023-05-01T06:52:33.962Z,100593.25
2023-05-01T06:55:01.419Z,100585.91
2023-05-01T06:57:28.678Z,100572.69
2023-05-01T06:59:56.801Z,100582.50
2023-05-01T07:02:26.307Z,100579.34
2023-05-01T07:04:53.579Z,100584.59
2023-05-01T07:07:20.837Z,100581.47
2023-05-01T07:09:48.071Z,100583.69
2023-05-01T07:12:15.408Z,100584.72
2023-05-01T07:14:42.647Z,100593.41
2023-05-01T07:17:10.184Z,100583.50
2023-05-01T07:19:37.997Z,100585.34
2023-05-01T07:22:05.402Z,100572.03
2023-05-01T07:24:32.688Z,100587.38
2023-05-01T07:27:00.129Z,100576.69
2023-05-01T07:29:27.476Z,100582.81
2023-05-01T07:31:54.924Z,100578.88
2023-05-01T07:34:22.249Z,100584.47
2023-05-01T07:36:49.533Z,100585.41
2023-05-01T07:39:17.898Z,100585.56
2023-05-01T07:41:45.638Z,100566.09
2023-05-01T07:44:13.538Z,100576.34
2023-05-01T07:46:41.207Z,100577.13
2023-05-01T07:49:08.692Z,100573.00
2023-05-01T07:51:36.030Z,100574.72
2023-05-01T07:54:04.600Z,100578.59
2023-05-01T07:56:32.122Z,100579.06
2023-05-01T07:58:59.362Z,100570.38
2023-05-01T08:01:26.864Z,100581.06
2023-05-01T08:03:54.267Z,100574.47
2023-05-01T08:06:21.690Z,100559.69
2023-05-01T08:08:49.002Z,100564.06
2023-05-01T08:11:16.534Z,100568.19
2023-05-01T08:13:43.839Z,100564.69
2023-05-01T08:16:11.207Z,100552.53
2023-05-01T08:18:38.545Z,100540.78
2023-05-01T08:21:05.822Z,100553.22
2023-05-01T08:23:33.109Z,100553.47
2023-05-01T08:26:00.414Z,100551.56
2023-05-01T08:28:27.739Z,100565.97
2023-05-01T08:30:55.014Z,100545.94
2023-05-01T08:33:22.358Z,100562.22
2023-05-01T08:35:49.707Z,100555.19
2023-05-01T08:38:17.054Z,100550.28
2023-05-01T08:40:56.970Z,100551.75
2023-05-01T08:43:25.187Z,100551.13
2023-05-01T08:45:52.486Z,100551.72
2023-05-01T08:48:20.286Z,100536.06
2023-05-01T08:50:48.004Z,100542.56
2023-05-01T08:53:18.568Z,100529.84
2023-05-01T08:55:47.842Z,100535.88
2023-05-01T08:58:15.449Z,100530.72
2023-05-01T09:00:42.694Z,100532.50
2023-05-01T09:03:11.931Z,100518.25
2023-05-01T09:05:39.284Z,100533.38
2023-05-01T09:08:06.619Z,100542.97
2023-05-01T09:10:34.010Z,100534.75
2023-05-01T09:13:01.880Z,100540.53
2023-05-01T09:15:30.028Z,100537.41
2023-05-01T09:17:57.581Z,100532.00
2023-05-01T09:20:25.256Z,100527.75
2023-05-01T09:22:52.569Z,100527.75
2023-05-01T09:25:19.818Z,100533.25
2023-05-01T09:27:47.053Z,100533.75
2023-05-01T09:30:33.764Z,100534.28
2023-05-01T09:33:14.105Z,100529.84
2023-05-01T09:35:54.243Z,100527.56
2023-05-01T09:38:23.020Z,100518.47
2023-05-01T09:40:50.435Z,100516.75
2023-05-01T09:43:27.651Z,100512.03
2023-05-01T09:46:05.551Z,100523.91
2023-05-01T09:48:35.740Z,100517.47
2023-05-01T09:51:25.570Z,100508.63
2023-05-01T09:53:54.173Z,100511.03
2023-05-01T09:56:21.943Z,100511.78
2023-05-01T09:58:50.563Z,100511.63
2023-05-01T10:01:18.000Z,100500.25
2023-05-01T10:03:46.229Z,100501.19
2023-05-01T10:06:27.474Z,100496.91
2023-05-01T10:08:54.833Z,100494.66
2023-05-01T10:11:23.661Z,100496.94
2023-05-01T10:14:10.025Z,100487.06
2023-05-01T10:16:38.075Z,100495.22
2023-05-01T10:19:05.529Z,100487.38
2023-05-01T10:21:33.449Z,100486.22
2023-05-01T10:24:01.555Z,100487.97
2023-05-01T10:26:28.905Z,100478.47
2023-05-01T10:28:58.867Z,100484.13
2023-05-01T10:31:29.700Z,100487.25
2023-05-01T10:33:57.038Z,100487.72
2023-05-01T10:36:33.061Z,100483.88
2023-05-01T10:39:00.772Z,100483.06
2023-05-01T10:41:59.062Z,100486.56
2023-05-01T10:44:27.101Z,100485.00
2023-05-01T10:46:54.840Z,100478.00
2023-05-01T10:49:22.314Z,100490.50
2023-05-01T10:51:59.017Z,100478.00
2023-05-01T10:54:29.566Z,100486.63
2023-05-01T10:56:58.687Z,100478.78
2023-05-01T10:59:26.200Z,100485.00
2023-05-01T11:01:53.828Z,100479.50
2023-05-01T11:04:24.673Z,100473.28
2023-05-01T11:07:11.351Z,100473.22
2023-05-01T11:09:42.758Z,100472.00
2023-05-01T11:12:46.995Z,100463.75
2023-05-01T11:15:33.884Z,100463.00
2023-05-01T11:18:01.882Z,100465.34
2023-05-01T11:20:29.275Z,100457.50
2023-05-01T11:22:57.188Z,100462.16
2023-05-01T11:25:27.268Z,100454.75
2023-05-01T11:27:56.233Z,100466.16
2023-05-01T11:30:23.538Z,100452.78
2023-05-01T11:32:51.134Z,100456.63
2023-05-01T11:35:19.348Z,100462.97
2023-05-01T11:37:46.906Z,100453.97
2023-05-01T11:40:23.298Z,100439.06
2023-05-01T11:42:51.166Z,100444.97
2023-05-01T11:45:19.351Z,100436.28
2023-05-01T11:47:46.618Z,100429.56
2023-05-01T11:50:13.845Z,100437.63
2023-05-01T11:52:54.670Z,100445.75
2023-05-01T11:55:22.126Z,100439.03
2023-05-01T11:57:49.978Z,100445.06
2023-05-01T12:00:30.357Z,100440.47
2023-05-01T12:02:58.474Z,100438.28
2023-05-01T12:05:26.950Z,100434.84
2023-05-01T12:08:19.291Z,100425.16
2023-05-01T12:10:51.510Z,100420.22
2023-05-01T12:13:18.813Z,100419.56
2023-05-01T12:15:47.212Z,100415.31
2023-05-01T12:18:15.399Z,100411.75
2023-05-01T12:20:48.619Z,100409.34
2023-05-01T12:23:16.472Z,100406.03
2023-05-01T12:25:44.894Z,100399.59
2023-05-01T12:28:16.967Z,100413.97
2023-05-01T12:30:45.170Z,100411.16
2023-05-01T12:33:13.981Z,100392.56
2023-05-01T12:35:41.872Z,100392.75
2023-05-01T12:38:15.334Z,100390.94
2023-05-01T12:40:53.201Z,100394.00
2023-05-01T12:43:49.781Z,100382.16
2023-05-01T12:46:17.807Z,100388.69
2023-05-01T12:48:45.347Z,100380.59
2023-05-01T12:51:20.726Z,100368.75
2023-05-01T12:53:48.588Z,100371.44
2023-05-01T12:56:23.811Z,100368.84
2023-05-01T12:58:52.487Z,100360.97
2023-05-01T13:01:27.330Z,100357.28
2023-05-01T13:03:56.742Z,100359.47
2023-05-01T13:06:33.294Z,100360.81
2023-05-01T13:09:10.346Z,100362.03
2023-05-01T13:11:37.979Z,100361.13
2023-05-01T13:14:11.409Z,100360.00
2023-05-01T13:16:47.883Z,100365.63
2023-05-01T13:19:25.452Z,100359.84
2023-05-01T13:21:52.832Z,100357.03
2023-05-01T13:24:20.162Z,100354.59
2023-05-01T13:26:47.458Z,100341.16
2023-05-01T13:29:15.183Z,100344.94
2023-05-01T13:31:44.171Z,100352.44
2023-05-01T13:34:12.102Z,100342.25
2023-05-01T13:36:40.485Z,100333.44
2023-05-01T13:39:07.873Z,100320.00
2023-05-01T13:41:35.990Z,100344.28
2023-05-01T13:44:03.301Z,100336.66
2023-05-01T13:46:30.790Z,100328.91
2023-05-01T13:48:59.232Z,100330.69
2023-05-01T13:51:27.212Z,100335.41
2023-05-01T13:53:55.560Z,100336.84
2023-05-01T13:56:22.957Z,100325.81
2023-05-01T13:58:50.831Z,100328.31
2023-05-01T14:01:20.230Z,100316.66
2023-05-01T14:03:48.025Z,100316.19
2023-05-01T14:06:16.708Z,100323.41
2023-05-01T14:08:44.574Z,100328.59
2023-05-01T14:11:12.522Z,100327.03
2023-05-01T14:13:43.898Z,100310.25
2023-05-01T14:16:13.095Z,100318.06
2023-05-01T14:18:47.434Z,100312.28
2023-05-01T14:21:15.536Z,100310.31
2023-05-01T14:23:42.857Z,100304.94
2023-05-01T14:26:11.354Z,100306.97
2023-05-01T14:28:43.260Z,100300.28
2023-05-01T14:31:18.178Z,100300.25
2023-05-01T14:33:45.502Z,100303.25
2023-05-01T14:36:12.768Z,100298.88
2023-05-01T14:38:40.619Z,100302.44
2023-05-01T14:41:11.873Z,100304.19
2023-05-01T14:43:40.849Z,100310.22
2023-05-01T14:46:08.174Z,100298.31
2023-05-01T14:48:36.269Z,100289.78
2023-05-01T14:51:04.505Z,100302.41
2023-05-01T14:53:32.213Z,100301.81
2023-05-01T14:55:59.436Z,100305.63
2023-05-01T14:58:26.768Z,100301.09
2023-05-01T15:00:54.216Z,100293.69
2023-05-01T15:03:21.854Z,100295.63
2023-05-01T15:05:49.264Z,100285.97
2023-05-01T15:08:16.771Z,100288.13
2023-05-01T15:10:45.036Z,100293.31
2023-05-01T15:13:12.518Z,100278.66
2023-05-01T15:15:39.840Z,100283.78
2023-05-01T15:18:07.349Z,100287.09
2023-05-01T15:20:34.656Z,100290.38
2023-05-01T15:23:01.909Z,100286.06
2023-05-01T15:25:29.196Z,100282.19
2023-05-01T15:27:57.185Z,100278.81
2023-05-01T15:30:25.134Z,100285.84
2023-05-01T15:32:52.874Z,100277.00
2023-05-01T15:35:21.511Z,100266.75
2023-05-01T15:37:48.777Z,100265.50
2023-05-01T15:40:16.259Z,100247.88
2023-05-01T15:42:45.481Z,100276.19
2023-05-01T15:45:12.757Z,100267.88
2023-05-01T15:47:40.025Z,100266.66
2023-05-01T15:50:10.747Z,100268.34
2023-05-01T15:52:38.481Z,100268.81
2023-05-01T15:55:06.387Z,100268.91
2023-05-01T15:57:34.276Z,100267.81
2023-05-01T16:00:01.855Z,100252.63
2023-05-01T16:02:32.772Z,100253.06
2023-05-01T16:05:00.390Z,100260.50
2023-05-01T16:07:30.873Z,100251.56
2023-05-01T16:09:58.958Z,100253.19
2023-05-01T16:12:29.288Z,100252.88
2023-05-01T16:14:56.828Z,100250.38
2023-05-01T16:17:24.213Z,100238.97
2023-05-01T16:19:52.759Z,100249.06
2023-05-01T16:22:21.345Z,100237.63
2023-05-01T16:24:48.703Z,100246.03
2023-05-01T16:27:16.430Z,100242.47
2023-05-01T16:29:43.711Z,100235.66
2023-05-01T16:32:11.417Z,100246.81
2023-05-01T16:34:39.823Z,100245.88
2023-05-01T16:37:07.447Z,100240.50
2023-05-01T16:39:36.844Z,100237.84
2023-05-01T16:42:04.406Z,100246.97
2023-05-01T16:44:31.760Z,100229.78
2023-05-01T16:46:59.083Z,100247.03
2023-05-01T16:49:29.603Z,100249.84
2023-05-01T16:51:58.320Z,100253.38
2023-05-01T16:54:31.948Z,100245.97
2023-05-01T16:56:59.445Z,100252.63
2023-05-01T16:59:28.198Z,100247.84
2023-05-01T17:01:55.641Z,100242.75
2023-05-01T17:04:23.123Z,100245.44
2023-05-01T17:06:50.518Z,100241.47
2023-05-01T17:09:18.353Z,100235.94
2023-05-01T17:11:59.033Z,100242.13
2023-05-01T17:14:28.730Z,100238.13
2023-05-01T17:16:58.855Z,100237.25
2023-05-01T17:19:26.424Z,100239.44
2023-05-01T17:21:54.022Z,100235.88
2023-05-01T17:24:21.979Z,100245.53
2023-05-01T17:26:49.545Z,100243.50
2023-05-01T17:29:16.818Z,100249.63
2023-05-01T17:31:44.175Z,100247.91
2023-05-01T17:34:11.501Z,100245.88
2023-05-01T17:36:38.748Z,100245.38
2023-05-01T17:39:06.006Z,100252.34
2023-05-01T17:41:33.240Z,100249.47
2023-05-01T17:44:00.837Z,100250.53
2023-05-01T17:46:28.112Z,100250.47
2023-05-01T17:48:55.389Z,100248.03
2023-05-01T17:51:22.598Z,100252.88
2023-05-01T17:53:49.928Z,100246.06
2023-05-01T17:56:18.160Z,100257.47
2023-05-01T17:58:45.366Z,100258.94
2023-05-01T18:01:12.738Z,100241.53
2023-05-01T18:03:40.204Z,100257.22
2023-05-01T18:06:07.658Z,100250.03
2023-05-01T18:08:34.955Z,100236.69
2023-05-01T18:11:03.683Z,100253.75
2023-05-01T18:13:33.516Z,100248.59
2023-05-01T18:16:03.828Z,100241.81
2023-05-01T18:18:31.716Z,100254.81
2023-05-01T18:20:59.059Z,100255.56
2023-05-01T18:23:26.323Z,100251.78
2023-05-01T18:25:54.739Z,100240.72
2023-05-01T18:28:22.405Z,100251.16
2023-05-01T18:30:49.674Z,100254.88
2023-05-01T18:33:18.075Z,100242.53
2023-05-01T18:35:47.773Z,100258.78
2023-05-01T18:38:15.047Z,100250.50
2023-05-01T18:40:42.333Z,100258.16
2023-05-01T18:43:10.424Z,100255.41
2023-05-01T18:45:37.745Z,100247.03
2023-05-01T18:48:05.476Z,100241.41
2023-05-01T18:50:32.789Z,100252.06
2023-05-01T18:53:00.018Z,100241.88
2023-05-01T18:55:27.395Z,100251.47
2023-05-01T18:57:54.653Z,100255.59
2023-05-01T19:00:21.951Z,100249.75
2023-05-01T19:02:51.976Z,100242.88
2023-05-01T19:05:19.797Z,100248.53
2023-05-01T19:07:47.300Z,100264.38
2023-05-01T19:10:14.559Z,100269.19
2023-05-01T19:12:42.184Z,100256.75
2023-05-01T19:15:09.885Z,100273.03
2023-05-01T19:17:37.406Z,100274.34
2023-05-01T19:20:05.544Z,100268.69
2023-05-01T19:22:35.154Z,100269.56
2023-05-01T19:25:02.426Z,100270.88
2023-05-01T19:27:29.736Z,100279.47
2023-05-01T19:30:00.765Z,100283.66
2023-05-01T19:32:28.628Z,100282.88
2023-05-01T19:34:56.874Z,100278.16
2023-05-01T19:37:24.173Z,100258.25
2023-05-01T19:39:54.174Z,100277.44
2023-05-01T19:42:21.448Z,100279.38
2023-05-01T19:44:48.701Z,100280.78
2023-05-01T19:47:16.123Z,100270.19
2023-05-01T19:49:43.860Z,100273.44
2023-05-01T19:52:11.124Z,100277.47
2023-05-01T19:54:38.380Z,100276.41
2023-05-01T19:57:05.803Z,100281.84
2023-05-01T19:59:33.102Z,100270.63
2023-05-01T20:02:01.497Z,100278.50
2023-05-01T20:04:29.059Z,100278.75
2023-05-01T20:06:56.404Z,100282.41
2023-05-01T20:09:25.589Z,100263.25
2023-05-01T20:11:52.848Z,100272.91
2023-05-01T20:14:20.082Z,100282.13
2023-05-01T20:16:49.095Z,100268.69
2023-05-01T20:19:17.795Z,100279.81
2023-05-01T20:21:45.100Z,100284.09
2023-05-01T20:24:12.331Z,100269.69
2023-05-01T20:26:39.613Z,100274.66
2023-05-01T20:29:06.830Z,100273.34
2023-05-01T20:31:34.753Z,100272.09
2023-05-01T20:34:02.137Z,100261.34
2023-05-01T20:36:29.629Z,100267.28
2023-05-01T20:38:57.990Z,100280.28
2023-05-01T20:41:25.851Z,100266.88
2023-05-01T20:43:53.204Z,100274.72
2023-05-01T20:46:20.476Z,100278.81
2023-05-01T20:48:47.830Z,100284.69
2023-05-01T20:51:16.206Z,100280.66
2023-05-01T20:53:43.580Z,100291.00
2023-05-01T20:56:10.879Z,100287.88
2023-05-01T20:58:38.137Z,100294.88
2023-05-01T21:01:06.640Z,100289.22
2023-05-01T21:03:34.086Z,100276.31
2023-05-01T21:06:01.656Z,100288.94
2023-05-01T21:08:29.154Z,100288.84
2023-05-01T21:10:56.475Z,100290.75
2023-05-01T21:13:24.877Z,100285.59
2023-05-01T21:15:52.460Z,100292.22
2023-05-01T21:18:23.585Z,100301.13
2023-05-01T21:20:50.940Z,100294.25
2023-05-01T21:23:18.207Z,100288.06
2023-05-01T21:25:45.572Z,100302.03
2023-05-01T21:28:13.478Z,100292.91
2023-05-01T21:30:40.832Z,100291.53
2023-05-01T21:33:11.957Z,100293.56
2023-05-01T21:35:41.771Z,100289.88
2023-05-01T21:38:09.266Z,100296.72
2023-05-01T21:40:40.465Z,100297.88
2023-05-01T21:43:07.974Z,100298.00
2023-05-01T21:45:40.236Z,100301.78
2023-05-01T21:48:07.862Z,100296.75
2023-05-01T21:50:36.780Z,100298.53
2023-05-01T21:53:04.484Z,100303.03
2023-05-01T21:55:31.693Z,100307.56
2023-05-01T21:57:58.942Z,100301.31
2023-05-01T22:00:27.364Z,100314.59
2023-05-01T22:02:54.778Z,100311.09
2023-05-01T22:05:22.872Z,100307.50
2023-05-01T22:07:52.059Z,100310.66
2023-05-01T22:10:19.603Z,100307.59
2023-05-01T22:12:48.809Z,100315.56
2023-05-01T22:15:16.106Z,100300.31
2023-05-01T22:17:43.394Z,100306.00
2023-05-01T22:20:10.902Z,100307.03
2023-05-01T22:22:39.074Z,100294.72
2023-05-01T22:25:06.922Z,100309.50
2023-05-01T22:27:34.700Z,100308.81
2023-05-01T22:30:03.176Z,100301.72
2023-05-01T22:32:30.826Z,100301.38
2023-05-01T22:34:58.158Z,100306.44
2023-05-01T22:37:25.779Z,100307.38
2023-05-01T22:39:53.555Z,100307.47
2023-05-01T22:42:20.960Z,100304.44
2023-05-01T22:44:48.428Z,100292.56
2023-05-01T22:47:16.993Z,100305.19
2023-05-01T22:49:44.319Z,100316.13
2023-05-01T22:52:11.522Z,100301.91
2023-05-01T22:54:38.898Z,100276.00
2023-05-01T22:57:06.156Z,100307.00
2023-05-01T22:59:33.524Z,100304.53
2023-05-01T23:02:06.635Z,100303.41
2023-05-01T23:04:33.989Z,100306.44
2023-05-01T23:07:01.336Z,100304.28
2023-05-01T23:09:30.580Z,100289.84
2023-05-01T23:11:57.880Z,100298.47
2023-05-01T23:14:25.848Z,100293.22
2023-05-01T23:16:53.118Z,100299.53
2023-05-01T23:19:23.720Z,100283.66
2023-05-01T23:21:51.631Z,100297.75
2023-05-01T23:24:19.960Z,100297.44
2023-05-01T23:26:47.361Z,100297.03
2023-05-01T23:29:14.710Z,100288.50
2023-05-01T23:31:46.897Z,100305.09
2023-05-01T23:34:17.643Z,100302.31
2023-05-01T23:36:46.146Z,100300.47
2023-05-01T23:39:13.534Z,100295.63
2023-05-01T23:41:40.796Z,100297.09
2023-05-01T23:44:08.400Z,100296.66
2023-05-01T23:46:36.057Z,100304.69
2023-05-01T23:49:03.309Z,100293.31
2023-05-01T23:51:31.509Z,100300.47
2023-05-01T23:53:59.136Z,100295.53
2023-05-01T23:56:26.474Z,100295.97
2023-05-01T23:58:53.715Z,100296.44
